Time;durP1;ratioP1;P1;durP2;ratioP2;P2;SDS_P1;SDS_P2;PMS_P1;PMS_P2;Temp;Humidity;BMP_temperature;BMP_pressure;BME280_temperature;BME280_humidity;BME280_pressure;Samples;Min_cycle;Max_cycle;Signal;HPM_P1;HPM_P2
2023/12/03 00:00:45;;;;;;;46.67;32.22;;;;;;;-0.90;100.00;101744.66;5097997;28;20655;-68
2023/12/03 00:03:13;;;;;;;48.67;33.65;;;;;;;-0.91;100.00;101741.19;5093227;28;20110;-68
2023/12/03 00:05:39;;;;;;;45.30;32.90;;;;;;;-0.87;100.00;101742.97;5091950;28;20028;-68
2023/12/03 00:08:05;;;;;;;47.90;33.05;;;;;;;-0.86;100.00;101736.88;5097576;28;20118;-68
2023/12/03 00:10:31;;;;;;;48.60;32.58;;;;;;;-0.84;100.00;101744.72;5094495;28;20038;-69
2023/12/03 00:12:56;;;;;;;48.72;32.15;;;;;;;-0.86;100.00;101741.22;5100166;28;20273;-68
2023/12/03 00:15:22;;;;;;;48.42;33.08;;;;;;;-0.83;100.00;101749.97;5096040;27;20031;-67
2023/12/03 00:17:48;;;;;;;45.08;31.52;;;;;;;-0.81;100.00;101739.53;5092418;28;20521;-68
2023/12/03 00:20:13;;;;;;;46.50;32.22;;;;;;;-0.81;100.00;101729.06;5091885;28;20024;-67
2023/12/03 00:22:39;;;;;;;43.50;31.33;;;;;;;-0.78;100.00;101742.19;5091022;28;20023;-68
2023/12/03 00:25:05;;;;;;;44.50;32.60;;;;;;;-0.80;100.00;101738.66;5091714;28;20092;-67
2023/12/03 00:27:30;;;;;;;49.05;34.05;;;;;;;-0.78;100.00;101731.72;5091307;27;20028;-67
2023/12/03 00:29:57;;;;;;;45.38;32.83;;;;;;;-0.78;100.00;101740.44;5096650;28;20024;-66
2023/12/03 00:32:22;;;;;;;45.92;32.75;;;;;;;-0.77;100.00;101741.31;5095247;28;20035;-67
2023/12/03 00:34:47;;;;;;;47.10;33.38;;;;;;;-0.73;100.00;101743.09;5097446;28;20151;-67
2023/12/03 00:37:13;;;;;;;48.70;33.50;;;;;;;-0.75;100.00;101747.44;5089035;28;20434;-67
2023/12/03 00:39:38;;;;;;;48.05;34.35;;;;;;;-0.73;100.00;101748.31;5094726;28;20417;-67
2023/12/03 00:42:03;;;;;;;45.53;33.38;;;;;;;-0.71;100.00;101749.25;5096463;28;20106;-68
2023/12/03 00:44:29;;;;;;;46.83;34.55;;;;;;;-0.71;100.00;101750.94;5091799;28;20419;-68
2023/12/03 00:46:54;;;;;;;48.65;34.53;;;;;;;-0.68;100.00;101750.97;5095135;28;20026;-68
2023/12/03 00:49:19;;;;;;;46.65;33.67;;;;;;;-0.71;100.00;101749.25;5088329;28;20031;-67
2023/12/03 00:51:45;;;;;;;45.85;33.72;;;;;;;-0.74;100.00;101750.94;5093508;28;20486;-67
2023/12/03 00:54:10;;;;;;;47.05;33.97;;;;;;;-0.77;100.00;101759.63;5096856;28;20525;-67
2023/12/03 00:56:35;;;;;;;46.75;34.08;;;;;;;-0.81;100.00;101761.31;5094421;28;20481;-67
2023/12/03 00:59:01;;;;;;;47.00;32.78;;;;;;;-0.81;100.00;101766.53;5093228;28;20041;-67
2023/12/03 01:01:26;;;;;;;48.97;34.25;;;;;;;-0.82;100.00;101763.94;5089518;28;20024;-67
2023/12/03 01:03:51;;;;;;;46.42;34.55;;;;;;;-0.83;100.00;101762.19;5092615;28;20102;-67
2023/12/03 01:06:17;;;;;;;45.97;32.78;;;;;;;-0.84;100.00;101760.41;5091823;28;20052;-68
2023/12/03 01:08:43;;;;;;;45.22;33.50;;;;;;;-0.85;100.00;101764.75;5095060;28;20266;-69
2023/12/03 01:11:09;;;;;;;43.58;31.63;;;;;;;-0.84;100.00;101763.00;5093230;28;20146;-68
2023/12/03 01:13:34;;;;;;;50.35;34.20;;;;;;;-0.87;100.00;101763.00;5092203;28;20522;-68
2023/12/03 01:16:00;;;;;;;47.42;33.40;;;;;;;-0.89;100.00;101762.09;5096524;28;20050;-68
2023/12/03 01:18:25;;;;;;;51.00;34.53;;;;;;;-0.88;100.00;101764.75;5086096;28;20159;-68
2023/12/03 01:20:51;;;;;;;45.40;34.67;;;;;;;-0.87;100.00;101776.06;5090462;28;20103;-68
2023/12/03 01:23:16;;;;;;;44.88;34.60;;;;;;;-0.87;100.00;101773.47;5086584;28;20164;-69
2023/12/03 01:25:41;;;;;;;46.17;33.08;;;;;;;-0.85;100.00;101776.94;5088918;28;20402;-69
2023/12/03 01:28:07;;;;;;;45.42;33.72;;;;;;;-0.85;100.00;101769.97;5092242;28;20028;-69
2023/12/03 01:30:32;;;;;;;50.25;34.53;;;;;;;-0.84;100.00;101776.09;5087716;28;20028;-69
2023/12/03 01:32:57;;;;;;;43.47;33.17;;;;;;;-0.84;100.00;101771.72;5091720;28;20032;-69
2023/12/03 01:35:23;;;;;;;48.67;34.40;;;;;;;-0.81;100.00;101778.75;5092427;28;20481;-67
2023/12/03 01:37:48;;;;;;;49.58;34.85;;;;;;;-0.78;100.00;101789.25;5100161;28;20547;-68
2023/12/03 01:40:13;;;;;;;47.83;34.10;;;;;;;-0.79;100.00;101783.13;5094505;28;20266;-68
2023/12/03 01:42:39;;;;;;;48.78;33.40;;;;;;;-0.87;100.00;101769.09;5095707;28;20031;-67
2023/12/03 01:45:05;;;;;;;48.60;34.83;;;;;;;-0.77;100.00;101791.84;5094609;28;20027;-68
2023/12/03 01:47:30;;;;;;;52.22;34.95;;;;;;;-0.76;100.00;101796.22;5098582;28;20417;-67
2023/12/03 01:50:03;;;;;;;48.17;33.45;;;;;;;-0.76;100.00;101782.28;5054492;28;1086887;-68
2023/12/03 01:52:30;;;;;;;46.42;32.95;;;;;;;-0.74;100.00;101788.41;5093256;28;20534;-68
2023/12/03 01:54:57;;;;;;;47.80;33.75;;;;;;;-0.77;100.00;101775.28;5094127;28;20262;-67
2023/12/03 01:57:23;;;;;;;46.40;33.58;;;;;;;-0.75;100.00;101786.66;5095460;28;20023;-67
2023/12/03 01:59:48;;;;;;;46.20;34.17;;;;;;;-0.76;100.00;101783.16;5094797;28;20035;-67
2023/12/03 02:02:13;;;;;;;49.20;34.50;;;;;;;-0.75;100.00;101784.06;5102567;28;20097;-67
2023/12/03 02:04:39;;;;;;;47.97;34.72;;;;;;;-0.77;100.00;101786.63;5101035;28;20028;-67
2023/12/03 02:07:05;;;;;;;49.90;34.78;;;;;;;-0.76;100.00;101792.72;5101041;28;20038;-67
2023/12/03 02:09:30;;;;;;;48.20;34.17;;;;;;;-0.75;100.00;101794.50;5103530;28;20015;-67
2023/12/03 02:11:56;;;;;;;46.08;32.83;;;;;;;-0.78;100.00;101794.47;5095775;28;20040;-68
2023/12/03 02:14:21;;;;;;;48.78;33.38;;;;;;;-0.80;100.00;101791.81;5100363;28;20035;-67
2023/12/03 02:16:47;;;;;;;48.55;34.15;;;;;;;-0.81;100.00;101791.81;5094975;28;20073;-68
2023/12/03 02:19:14;;;;;;;46.13;33.15;;;;;;;-0.83;100.00;101793.53;5104260;28;20086;-68
2023/12/03 02:21:39;;;;;;;48.65;34.00;;;;;;;-0.83;100.00;101799.66;5094910;28;20034;-68
2023/12/03 02:24:05;;;;;;;45.53;33.67;;;;;;;-0.83;100.00;101801.38;5098416;28;20035;-68
2023/12/03 02:26:30;;;;;;;48.17;33.63;;;;;;;-0.86;100.00;101796.13;5093346;28;20036;-67
2023/12/03 02:28:56;;;;;;;46.42;32.78;;;;;;;-0.86;100.00;101794.38;5099877;28;20046;-67
2023/12/03 02:31:21;;;;;;;50.63;34.53;;;;;;;-0.88;100.00;101801.34;5097992;28;20065;-68
2023/12/03 02:34:09;;;;;;;47.80;33.78;;;;;;;-0.91;100.00;101797.81;5098327;28;20130;-67
2023/12/03 02:36:35;;;;;;;47.78;34.05;;;;;;;-0.95;100.00;101799.50;5095200;27;20318;-68
2023/12/03 02:39:01;;;;;;;45.92;32.88;;;;;;;-1.01;100.00;101796.81;5100216;28;20482;-68
2023/12/03 02:41:26;;;;;;;51.50;35.00;;;;;;;-0.97;100.00;101802.94;5091000;28;20034;-67
2023/12/03 02:43:52;;;;;;;51.80;35.50;;;;;;;-0.97;100.00;101789.88;5095927;27;20016;-68
2023/12/03 02:46:17;;;;;;;48.75;35.35;;;;;;;-0.94;100.00;101798.63;5093946;28;20397;-68
2023/12/03 02:48:42;;;;;;;49.78;34.42;;;;;;;-0.87;100.00;101796.97;5096366;28;20077;-67
2023/12/03 02:51:08;;;;;;;50.53;33.80;;;;;;;-0.85;100.00;101803.97;5094577;28;20517;-67
2023/12/03 02:53:38;;;;;;;46.05;33.97;;;;;;;-0.81;100.00;101803.13;5096336;28;20027;-67
2023/12/03 02:56:04;;;;;;;49.85;34.00;;;;;;;-0.78;100.00;101805.78;5100810;28;20053;-67
2023/12/03 02:58:29;;;;;;;48.50;33.65;;;;;;;-0.76;100.00;101796.22;5097109;28;20035;-67
2023/12/03 03:00:54;;;;;;;47.17;34.00;;;;;;;-0.73;100.00;101812.81;5095033;28;20065;-67
2023/12/03 03:03:20;;;;;;;44.40;32.50;;;;;;;-0.85;100.00;101788.28;5074241;22;20104;-85
2023/12/03 03:05:45;;;;;;;44.63;32.55;;;;;;;-0.73;100.00;101811.06;5018402;28;20065;-86
2023/12/03 03:08:11;;;;;;;45.40;33.17;;;;;;;-1.02;100.00;101759.34;5022457;28;20036;-85
2023/12/03 03:10:36;;;;;;;45.35;31.90;;;;;;;-0.79;100.00;101795.34;5022383;28;20021;-85
2023/12/03 03:13:02;;;;;;;45.20;32.65;;;;;;;-0.90;100.00;101776.91;5006453;28;20034;-85
2023/12/03 03:15:27;;;;;;;47.03;32.97;;;;;;;-1.01;100.00;101765.44;5022191;28;20540;-85
2023/12/03 03:17:52;;;;;;;44.47;32.55;;;;;;;-0.87;100.00;101787.41;5006508;28;20040;-86
2023/12/03 03:20:21;;;;;;;46.58;33.28;;;;;;;-1.04;100.00;101765.44;5024175;28;20464;-85
2023/12/03 03:22:47;;;;;;;47.60;33.30;;;;;;;-0.93;100.00;101791.66;5007621;28;20041;-85
2023/12/03 03:25:13;;;;;;;44.15;32.70;;;;;;;-0.84;100.00;101812.69;5021487;28;20056;-86
2023/12/03 03:27:38;;;;;;;44.72;31.58;;;;;;;-1.05;100.00;101761.91;5024261;28;20110;-86
2023/12/03 03:30:06;;;;;;;47.03;32.22;;;;;;;-0.97;100.00;101784.66;5021042;28;20032;-86
2023/12/03 03:32:32;;;;;;;47.63;33.13;;;;;;;-1.02;100.00;101775.03;5019708;28;20340;-86
2023/12/03 03:34:57;;;;;;;44.78;32.10;;;;;;;-0.84;100.00;101804.84;5022806;28;20533;-86
2023/12/03 03:37:22;;;;;;;46.60;32.38;;;;;;;-1.10;100.00;101762.72;5020584;28;20056;-86
2023/12/03 03:39:48;;;;;;;48.67;32.92;;;;;;;-0.96;100.00;101808.22;5020147;28;20212;-86
2023/12/03 03:42:13;;;;;;;47.70;32.72;;;;;;;-1.10;100.00;101800.19;5021524;28;20079;-86
2023/12/03 03:44:39;;;;;;;45.00;32.25;;;;;;;-1.40;100.00;101760.63;5020606;28;20044;-86
2023/12/03 03:47:04;;;;;;;47.88;32.92;;;;;;;-1.34;100.00;101797.25;5021910;28;20578;-86
2023/12/03 03:49:29;;;;;;;52.10;34.22;;;;;;;-1.36;100.00;101810.31;5023149;28;20563;-86
2023/12/03 03:51:55;;;;;;;47.25;33.58;;;;;;;-1.64;100.00;101779.44;5025277;28;20488;-86
2023/12/03 03:54:20;;;;;;;49.38;35.13;;;;;;;-1.66;100.00;101786.38;5027792;28;20108;-86
2023/12/03 03:56:49;;;;;;;47.20;32.72;;;;;;;-1.79;100.00;101787.94;5023603;28;20029;-86
2023/12/03 03:59:15;;;;;;;55.90;36.35;;;;;;;-1.86;100.00;101784.34;5005685;28;20025;-86
2023/12/03 04:01:44;;;;;;;54.53;35.17;;;;;;;-1.82;100.00;101806.16;5023612;28;20188;-86
2023/12/03 04:04:10;;;;;;;53.05;35.38;;;;;;;-1.81;100.00;101820.97;5022865;28;20049;-87
2023/12/03 04:06:41;;;;;;;55.85;36.28;;;;;;;-1.86;100.00;101817.41;5006529;28;20033;-86
2023/12/03 04:09:09;;;;;;;53.38;36.72;;;;;;;-1.93;100.00;101821.63;5024941;28;20033;-87
2023/12/03 04:11:40;;;;;;;55.42;37.65;;;;;;;-2.06;100.00;101804.03;5025439;28;20040;-86
2023/12/03 04:14:07;;;;;;;59.65;39.13;;;;;;;-2.05;100.00;101827.56;5025054;28;20102;-86
2023/12/03 04:16:33;;;;;;;57.22;38.88;;;;;;;-2.09;100.00;101823.16;5022641;28;20030;-87
2023/12/03 04:18:59;;;;;;;60.15;40.85;;;;;;;-2.08;100.00;101822.28;5023917;28;20044;-86
2023/12/03 04:21:24;;;;;;;57.20;38.53;;;;;;;-2.09;100.00;101820.53;5023787;28;20025;-86
2023/12/03 04:23:49;;;;;;;63.95;40.83;;;;;;;-2.17;100.00;101816.91;5004040;28;20096;-86
2023/12/03 04:26:15;;;;;;;64.97;40.53;;;;;;;-2.27;100.00;101820.19;5022832;28;20087;-84
2023/12/03 04:28:41;;;;;;;64.13;39.85;;;;;;;-2.21;100.00;101832.50;5021847;28;20057;-87
2023/12/03 04:31:27;;;;;;;60.63;39.72;;;;;;;-2.24;100.00;101835.91;5019913;28;20349;-86
2023/12/03 04:33:54;;;;;;;64.95;40.33;;;;;;;-2.33;100.00;101835.75;5023345;28;20132;-85
2023/12/03 04:36:23;;;;;;;60.95;38.17;;;;;;;-2.39;100.00;101826.06;5024525;28;20059;-86
2023/12/03 04:38:51;;;;;;;62.08;38.78;;;;;;;-2.35;100.00;101840.91;5004931;28;20024;-86
2023/12/03 04:41:17;;;;;;;62.97;38.45;;;;;;;-2.38;100.00;101835.69;5024223;28;20037;-86
2023/12/03 04:43:43;;;;;;;59.03;37.80;;;;;;;-2.44;100.00;101829.47;5021864;28;20075;-86
2023/12/03 04:46:08;;;;;;;58.13;38.00;;;;;;;-2.45;100.00;101838.13;5022809;28;20302;-86
2023/12/03 04:48:34;;;;;;;60.50;37.25;;;;;;;-2.54;100.00;101837.13;5020058;28;20117;-86
2023/12/03 04:51:00;;;;;;;63.70;38.42;;;;;;;-2.58;100.00;101832.69;5013800;28;20465;-86
2023/12/03 04:53:26;;;;;;;59.10;38.47;;;;;;;-2.55;100.00;101837.97;5022335;28;20029;-86
2023/12/03 04:55:51;;;;;;;64.45;38.55;;;;;;;-2.55;100.00;101851.00;5022946;28;20029;-86
2023/12/03 04:58:17;;;;;;;63.63;37.55;;;;;;;-2.55;100.00;101851.00;5021592;28;20113;-85
2023/12/03 05:00:42;;;;;;;60.25;36.65;;;;;;;-2.60;100.00;101857.84;5020359;28;20082;-86
2023/12/03 05:03:08;;;;;;;60.88;37.05;;;;;;;-2.63;100.00;101847.38;5023065;28;20435;-86
2023/12/03 05:05:33;;;;;;;59.83;36.60;;;;;;;-2.70;100.00;101848.09;5022790;28;20040;-86
2023/12/03 05:07:59;;;;;;;59.60;37.38;;;;;;;-2.73;100.00;101854.97;5024594;28;20025;-86
2023/12/03 05:10:25;;;;;;;63.45;38.58;;;;;;;-2.92;100.00;101830.31;5022078;28;20029;-86
2023/12/03 05:12:50;;;;;;;61.50;37.05;;;;;;;-2.84;100.00;101857.38;5017907;28;20464;-86
2023/12/03 05:15:15;;;;;;;68.43;38.13;;;;;;;-2.86;100.00;101856.47;5018569;28;20021;-86
2023/12/03 05:17:41;;;;;;;63.03;37.50;;;;;;;-2.90;100.00;101862.44;5007431;28;20052;-85
2023/12/03 05:20:07;;;;;;;65.57;37.65;;;;;;;-2.95;100.00;101854.53;5019644;28;20046;-85
2023/12/03 05:22:33;;;;;;;63.22;37.60;;;;;;;-3.00;100.00;101856.19;5022567;28;20032;-85
2023/12/03 05:24:58;;;;;;;65.88;37.92;;;;;;;-3.00;100.00;101861.41;5020465;28;20112;-85
2023/12/03 05:27:23;;;;;;;63.25;38.10;;;;;;;-3.02;100.00;101863.06;5021345;28;20108;-86
2023/12/03 05:29:49;;;;;;;63.45;37.47;;;;;;;-3.04;100.00;101855.25;5019781;28;20078;-85
2023/12/03 05:32:14;;;;;;;59.53;36.63;;;;;;;-2.99;100.00;101859.66;5003496;28;20099;-86
2023/12/03 05:34:44;;;;;;;62.30;36.92;;;;;;;-3.03;100.00;101867.41;5020432;28;20064;-86
2023/12/03 05:37:10;;;;;;;60.25;36.92;;;;;;;-3.05;100.00;101860.44;5016210;28;20044;-86
2023/12/03 05:39:40;;;;;;;66.38;38.38;;;;;;;-3.11;100.00;101853.34;5020742;28;20033;-86
2023/12/03 05:42:06;;;;;;;63.13;37.28;;;;;;;-3.05;100.00;101866.50;5018319;28;20029;-86
2023/12/03 05:44:32;;;;;;;64.50;36.33;;;;;;;-3.05;100.00;101861.31;5023607;28;20484;-86
2023/12/03 05:46:57;;;;;;;63.05;37.30;;;;;;;-3.10;100.00;101855.09;5004268;28;20034;-86
2023/12/03 05:49:22;;;;;;;61.83;36.88;;;;;;;-3.04;100.00;101864.78;5023143;28;20024;-86
2023/12/03 05:51:49;;;;;;;60.20;35.63;;;;;;;-3.04;100.00;101864.78;5022620;28;20484;-86
2023/12/03 05:54:15;;;;;;;62.20;35.70;;;;;;;-3.09;100.00;101862.09;5018867;28;20499;-85
2023/12/03 05:56:40;;;;;;;63.40;36.25;;;;;;;-3.11;100.00;101861.16;5023504;28;20025;-86
2023/12/03 05:59:06;;;;;;;58.85;34.75;;;;;;;-3.13;100.00;101864.59;5006902;28;20018;-86
2023/12/03 06:01:32;;;;;;;62.95;35.85;;;;;;;-3.15;100.00;101867.16;5004805;28;20160;-86
2023/12/03 06:03:57;;;;;;;62.83;35.70;;;;;;;-3.12;100.00;101868.94;5024737;28;20663;-85
2023/12/03 06:06:22;;;;;;;61.55;36.50;;;;;;;-3.14;100.00;101868.03;5024748;28;20186;-86
2023/12/03 06:08:48;;;;;;;61.33;35.80;;;;;;;-3.15;100.00;101867.16;4999906;28;20625;-86
2023/12/03 06:11:14;;;;;;;61.50;36.90;;;;;;;-3.19;100.00;101869.66;5019590;28;20079;-86
2023/12/03 06:13:39;;;;;;;64.18;37.65;;;;;;;-3.21;100.00;101877.44;5019199;28;20028;-85
2023/12/03 06:16:05;;;;;;;63.90;37.03;;;;;;;-3.22;100.00;101873.06;5019351;28;20547;-86
2023/12/03 06:18:31;;;;;;;60.47;36.47;;;;;;;-3.30;100.00;101866.81;5023924;28;20344;-86
2023/12/03 06:20:56;;;;;;;65.05;37.70;;;;;;;-3.29;100.00;101885.06;5018397;28;20436;-85
2023/12/03 06:23:22;;;;;;;19.70;10.27;;;;;;;-3.30;100.00;101891.13;5023105;28;20049;-85
2023/12/03 06:25:48;;;;;;;62.90;36.25;;;;;;;-3.31;100.00;101893.69;5024206;28;20053;-85
2023/12/03 06:28:14;;;;;;;59.92;35.20;;;;;;;-3.29;100.00;101895.50;5023495;28;20060;-85
2023/12/03 06:30:39;;;;;;;61.55;35.40;;;;;;;-3.21;100.00;101892.19;5023673;28;20079;-85
2023/12/03 06:33:04;;;;;;;62.63;36.33;;;;;;;-3.15;100.00;101890.56;5003396;28;20044;-86
2023/12/03 06:35:30;;;;;;;68.40;36.88;;;;;;;-3.14;100.00;101876.72;5033563;28;20060;-85
2023/12/03 06:37:55;;;;;;;58.08;34.80;;;;;;;-3.11;100.00;101881.13;5042316;28;20255;-86
2023/12/03 06:40:20;;;;;;;63.13;36.13;;;;;;;-3.12;100.00;101875.03;5036681;28;20013;-85
2023/12/03 06:42:46;;;;;;;59.63;35.80;;;;;;;-3.16;100.00;101875.81;5038519;28;20432;-86
2023/12/03 06:45:13;;;;;;;60.97;34.88;;;;;;;-3.18;100.00;101872.28;5041688;28;20037;-85
2023/12/03 06:47:38;;;;;;;62.08;35.47;;;;;;;-3.25;100.00;101854.78;5039235;28;20040;-86
2023/12/03 06:50:04;;;;;;;61.03;35.95;;;;;;;-3.25;100.00;101870.41;5042263;28;20021;-85
2023/12/03 06:52:30;;;;;;;58.38;34.35;;;;;;;-3.24;100.00;101871.28;5024153;28;20112;-86
2023/12/03 06:54:55;;;;;;;59.28;34.83;;;;;;;-3.28;100.00;101870.34;5041278;28;20579;-86
2023/12/03 06:57:20;;;;;;;59.28;35.35;;;;;;;-3.26;100.00;101866.03;5023034;28;20037;-85
2023/12/03 06:59:46;;;;;;;63.80;35.42;;;;;;;-3.29;100.00;101864.25;5017885;28;20021;-86
2023/12/03 07:02:11;;;;;;;55.33;34.58;;;;;;;-3.31;100.00;101855.50;5037029;28;20041;-86
2023/12/03 07:04:37;;;;;;;61.88;35.97;;;;;;;-3.29;100.00;101868.56;5023986;28;20064;-85
2023/12/03 07:07:04;;;;;;;17.27;8.20;;;;;;;-3.30;100.00;101867.69;5026739;28;20037;-86
2023/12/03 07:09:30;;;;;;;58.40;35.40;;;;;;;-3.33;100.00;101865.03;5026644;28;20025;-86
2023/12/03 07:11:55;;;;;;;56.90;33.80;;;;;;;-3.31;100.00;101865.03;5007267;28;20033;-86
2023/12/03 07:14:21;;;;;;;18.27;10.35;;;;;;;-3.33;100.00;101871.97;5023998;28;20124;-85
2023/12/03 07:16:46;;;;;;;58.53;34.50;;;;;;;-3.36;100.00;101875.34;5023534;28;20266;-86
2023/12/03 07:19:11;;;;;;;60.35;35.60;;;;;;;-3.39;100.00;101877.00;5021888;28;20025;-86
2023/12/03 07:21:37;;;;;;;59.05;36.47;;;;;;;-3.35;100.00;101889.25;5022418;28;20056;-86
2023/12/03 07:24:03;;;;;;;59.58;34.90;;;;;;;-3.41;100.00;101883.91;5024633;28;20035;-85
2023/12/03 07:26:29;;;;;;;59.85;35.10;;;;;;;-3.42;100.00;101896.06;5024977;28;20025;-86
2023/12/03 07:28:54;;;;;;;62.67;36.22;;;;;;;-3.59;100.00;101867.03;5026760;28;20024;-86
2023/12/03 07:31:19;;;;;;;62.40;35.95;;;;;;;-3.41;100.00;101895.22;5024686;28;20480;-86
2023/12/03 07:33:45;;;;;;;61.67;35.42;;;;;;;-3.37;100.00;101899.63;5006123;28;20031;-86
2023/12/03 07:36:10;;;;;;;61.78;36.97;;;;;;;-3.38;100.00;101900.50;5027482;28;20026;-85
2023/12/03 07:38:36;;;;;;;60.53;35.47;;;;;;;-3.36;100.00;101904.00;5025182;28;20026;-85
2023/12/03 07:41:01;;;;;;;58.40;35.85;;;;;;;-3.41;100.00;101895.22;5023289;28;20128;-86
2023/12/03 07:43:27;;;;;;;59.22;36.10;;;;;;;-3.32;100.00;101907.56;5024528;28;20147;-85
2023/12/03 07:45:52;;;;;;;62.58;36.38;;;;;;;-3.31;100.00;101904.97;5018021;28;20048;-85
2023/12/03 07:48:18;;;;;;;59.22;36.03;;;;;;;-3.30;100.00;101904.16;5024597;28;20415;-87
2023/12/03 07:50:43;;;;;;;58.97;35.92;;;;;;;-3.24;100.00;101902.53;5024959;28;20053;-86
2023/12/03 07:53:10;;;;;;;59.47;35.88;;;;;;;-3.28;100.00;101894.63;5007929;28;20120;-87
2023/12/03 07:55:36;;;;;;;29.58;15.05;;;;;;;-3.20;100.00;101905.22;5022002;28;20057;-87
2023/12/03 07:58:01;;;;;;;17.48;10.43;;;;;;;-3.18;100.00;101900.03;5026052;28;20455;-87
2023/12/03 08:00:26;;;;;;;56.58;35.60;;;;;;;-3.17;100.00;101905.31;5004305;28;20030;-87
2023/12/03 08:02:52;;;;;;;60.65;35.90;;;;;;;-3.20;100.00;101896.53;5023474;28;20045;-87
2023/12/03 08:05:17;;;;;;;60.10;36.72;;;;;;;-3.26;100.00;101894.66;5023791;28;20303;-87
2023/12/03 08:07:42;;;;;;;59.38;34.95;;;;;;;-3.17;100.00;101910.50;5022923;28;20084;-87
2023/12/03 08:10:08;;;;;;;58.25;34.78;;;;;;;-3.18;100.00;101898.31;5021103;28;20178;-86
2023/12/03 08:12:33;;;;;;;56.78;34.22;;;;;;;-3.18;100.00;101911.34;5019983;28;20025;-87
2023/12/03 08:14:58;;;;;;;57.38;33.90;;;;;;;-3.13;100.00;101916.69;5022627;28;20048;-86
2023/12/03 08:17:24;;;;;;;54.33;33.05;;;;;;;-3.11;100.00;101909.75;5023124;28;20063;-88
2023/12/03 08:19:49;;;;;;;52.33;33.05;;;;;;;-3.10;100.00;101914.13;5025939;28;20025;-86
2023/12/03 08:22:14;;;;;;;54.67;34.58;;;;;;;-3.07;100.00;101915.06;5024490;28;20101;-86
2023/12/03 08:24:40;;;;;;;51.42;32.70;;;;;;;-3.01;100.00;101917.81;5006310;28;20032;-86
2023/12/03 08:27:05;;;;;;;51.75;32.90;;;;;;;-2.95;100.00;101917.06;5024662;28;20049;-86
2023/12/03 08:29:31;;;;;;;49.90;32.15;;;;;;;-2.88;100.00;101913.75;5027150;28;20024;-87
2023/12/03 08:31:56;;;;;;;52.35;32.17;;;;;;;-2.79;100.00;101926.09;5023902;28;20443;-87
2023/12/03 08:34:22;;;;;;;48.33;31.23;;;;;;;-2.82;100.00;101907.78;5008200;28;20021;-87
2023/12/03 08:36:47;;;;;;;49.13;31.60;;;;;;;-2.67;100.00;101928.09;5024986;28;20048;-86
2023/12/03 08:39:13;;;;;;;44.30;28.85;;;;;;;-2.62;100.00;101934.25;5023776;28;20048;-87
2023/12/03 08:41:38;;;;;;;45.92;29.33;;;;;;;-2.58;100.00;101933.47;5026357;28;20393;-86
2023/12/03 08:44:04;;;;;;;46.47;29.13;;;;;;;-2.55;100.00;101937.03;5026722;28;20087;-87
2023/12/03 08:46:29;;;;;;;46.42;30.38;;;;;;;-2.58;100.00;101917.84;5021821;28;20025;-87
2023/12/03 08:48:55;;;;;;;45.47;28.80;;;;;;;-2.56;100.00;101927.44;5027264;28;20017;-86
2023/12/03 08:51:21;;;;;;;47.83;30.55;;;;;;;-2.53;100.00;101921.41;5026123;28;20064;-87
2023/12/03 08:53:47;;;;;;;44.50;28.30;;;;;;;-2.46;100.00;101936.34;5025631;28;20061;-87
2023/12/03 08:56:12;;;;;;;42.70;27.77;;;;;;;-2.41;100.00;101945.13;5026241;28;20069;-88
2023/12/03 08:58:41;;;;;;;42.78;28.85;;;;;;;-2.38;100.00;101941.66;5019870;28;20036;-87
2023/12/03 09:01:07;;;;;;;42.67;28.27;;;;;;;-2.34;100.00;101951.31;5005913;28;20049;-88
2023/12/03 09:03:33;;;;;;;44.30;28.63;;;;;;;-2.32;100.00;101945.28;5025654;28;20049;-88
2023/12/03 09:05:59;;;;;;;39.92;27.35;;;;;;;-2.33;100.00;101947.88;5020543;28;20431;-88
2023/12/03 09:08:25;;;;;;;41.45;28.15;;;;;;;-2.35;100.00;101947.81;5004539;28;20084;-87
2023/12/03 09:10:50;;;;;;;40.13;28.10;;;;;;;-2.36;100.00;101956.50;5025788;28;20304;-87
2023/12/03 09:13:15;;;;;;;39.08;26.75;;;;;;;-2.36;100.00;101947.81;5020238;28;20067;-87
2023/12/03 09:15:41;;;;;;;41.83;28.42;;;;;;;-2.34;100.00;101946.09;5024229;28;20124;-88
2023/12/03 09:18:06;;;;;;;40.00;26.95;;;;;;;-2.37;100.00;101935.63;5018542;28;20491;-87
2023/12/03 09:20:32;;;;;;;41.53;27.08;;;;;;;-2.24;100.00;101955.00;5025850;28;20574;-88
2023/12/03 09:22:57;;;;;;;40.08;26.55;;;;;;;-2.23;100.00;101935.88;5005146;28;20032;-88
2023/12/03 09:25:23;;;;;;;42.50;27.08;;;;;;;-2.10;100.00;101951.78;5025279;28;20060;-87
2023/12/03 09:27:48;;;;;;;37.67;26.08;;;;;;;-2.03;100.00;101951.06;5023670;28;20578;-88
2023/12/03 09:30:14;;;;;;;36.38;24.60;;;;;;;-1.90;100.00;101956.50;5021387;28;20025;-89
2023/12/03 09:32:40;;;;;;;36.10;26.40;;;;;;;-1.83;100.00;101950.56;5021753;28;20099;-87
2023/12/03 09:35:06;;;;;;;40.47;24.10;;;;;;;-1.73;100.00;101949.84;5024096;28;20139;-86
2023/12/03 09:37:31;;;;;;;38.22;25.77;;;;;;;-1.65;100.00;101957.81;5021383;28;20036;-86
2023/12/03 09:39:57;;;;;;;40.55;26.33;;;;;;;-1.61;100.00;101944.84;5022527;28;20574;-86
2023/12/03 09:42:26;;;;;;;36.97;24.42;;;;;;;-1.52;100.00;101942.38;5005541;28;20029;-85
2023/12/03 09:45:04;;;;;;;37.20;25.67;;;;;;;-1.47;100.00;101938.94;5019745;28;20029;-86
2023/12/03 09:47:35;;;;;;;39.90;26.52;;;;;;;-1.33;100.00;101942.69;5021085;28;20033;-86
2023/12/03 09:50:01;;;;;;;35.47;24.67;;;;;;;-1.27;100.00;101940.16;5007270;28;20484;-84
2023/12/03 09:52:29;;;;;;;32.67;23.77;;;;;;;-1.22;100.00;101946.31;5023780;28;20056;-86
2023/12/03 09:55:00;;;;;;;36.72;25.65;;;;;;;-1.16;100.00;101941.19;5024816;28;20021;-86
2023/12/03 09:57:29;;;;;;;37.80;25.20;;;;;;;-1.12;100.00;101935.16;5025204;28;20018;-89
2023/12/03 09:59:59;;;;;;;32.35;23.35;;;;;;;-1.02;100.00;101936.16;5021135;28;20055;-84
2023/12/03 10:02:28;;;;;;;35.03;24.20;;;;;;;-1.04;100.00;101924.81;5025003;28;20060;-90
2023/12/03 10:04:54;;;;;;;33.63;23.77;;;;;;;-0.89;100.00;101943.31;5034339;28;20056;-88
2023/12/03 10:07:21;;;;;;;34.28;24.08;;;;;;;-0.84;100.00;101936.41;5016662;28;20061;-89
2023/12/03 10:09:48;;;;;;;31.65;22.85;;;;;;;-0.91;100.00;101920.63;5034667;28;20052;-89
2023/12/03 10:12:16;;;;;;;36.15;24.60;;;;;;;-0.77;100.00;101942.59;5025964;28;20032;-85
2023/12/03 10:14:43;;;;;;;34.03;23.33;;;;;;;-0.72;100.00;101937.44;5026854;28;20064;-86
2023/12/03 10:17:08;;;;;;;29.85;22.05;;;;;;;-0.66;100.00;101930.56;5026558;28;20064;-86
2023/12/03 10:19:34;;;;;;;31.75;22.60;;;;;;;-0.69;100.00;101919.19;5032145;28;20447;-87
2023/12/03 10:21:59;;;;;;;29.75;21.08;;;;;;;-0.58;100.00;101921.06;5017800;28;20063;-86
2023/12/03 10:24:25;;;;;;;31.13;21.33;;;;;;;-0.56;100.00;101926.31;5036683;28;20087;-91
2023/12/03 10:26:52;;;;;;;29.10;21.20;;;;;;;-0.48;100.00;101918.56;5036436;28;20072;-88
2023/12/03 10:29:23;;;;;;;28.88;20.95;;;;;;;-0.43;100.00;101919.47;5030769;28;20037;-89
2023/12/03 10:31:49;;;;;;;30.05;20.05;;;;;;;-0.34;100.00;101917.84;5026725;28;20502;-86
2023/12/03 10:34:16;;;;;;;30.52;20.75;;;;;;;-0.27;100.00;101906.59;5027741;28;20059;-88
2023/12/03 10:36:44;;;;;;;28.42;19.30;;;;;;;-0.27;100.00;101908.34;5012953;28;20032;-87
2023/12/03 10:39:11;;;;;;;25.85;19.08;;;;;;;-0.29;100.00;101886.53;5007887;28;20029;-87
2023/12/03 10:41:38;;;;;;;26.65;19.38;;;;;;;-0.01;100.00;101904.22;5014659;28;20060;-88
2023/12/03 10:44:03;;;;;;;25.38;18.48;;;;;;;0.12;100.00;101902.59;5033016;28;20030;-87
2023/12/03 10:46:29;;;;;;;26.48;18.48;;;;;;;0.12;100.00;101884.28;5023794;28;20033;-87
2023/12/03 10:48:54;;;;;;;27.33;19.75;;;;;;;0.37;100.00;101892.34;5031392;28;20487;-86
2023/12/03 10:51:20;;;;;;;24.58;17.75;;;;;;;0.45;100.00;101882.78;5032974;28;20388;-87
2023/12/03 10:53:45;;;;;;;24.80;17.95;;;;;;;0.53;100.00;101882.84;5015002;28;20021;-87
2023/12/03 10:56:11;;;;;;;24.65;18.17;;;;;;;0.66;100.00;101884.69;5015306;28;20026;-86